Star Flyer — 9HA2512 — position and weather

sailwx.info

Track history (hours):
 
Tides and Currents Weather Stations Pressure Air Temp Water Temp Dewpoint Dewpoint Depression Visibility Wind Speed Wind Dir Waves Ship Positions

Star Flyer

Last reported at 2017-Mar-25 02:32 UTC. Time now 2017-Mar-26 15:03 UTC.
Position N 17°42' W 062°19'.

Length 112 m; draft 5.9 m.

Type: Ship. MMSI: 248785000.

Date/timePositionNaut miles runAvg speedWind from/ knotsBaromVisibWave heightAir tempDewpointWater temp
2017-Mar-25 02:32N 17°42' W 062°19'6 5.8
2017-Mar-25 01:34N 17°40' W 062°13'6 6.0
2017-Mar-25 00:33N 17°38' W 062°07'5 5.5
2017-Mar-24 23:34N 17°36' W 062°02'5 4.8
2017-Mar-24 22:34N 17°35' W 061°57'5 4.5
2017-Mar-24 21:33N 17°34' W 061°52'3 2.7
2017-Mar-24 20:30N 17°35' W 061°50'0 0.0
2017-Mar-24 19:30N 17°35' W 061°50'0 0.0
2017-Mar-24 18:30N 17°35' W 061°50'0 0.0
2017-Mar-24 17:30N 17°35' W 061°50'0 0.0
2017-Mar-24 16:30N 17°35' W 061°50'0 0.0
2017-Mar-24 15:31N 17°35' W 061°50'0 0.4
2017-Mar-24 14:26N 17°35' W 061°50'3 3.0
2017-Mar-24 13:33N 17°32' W 061°51'10 9.5
2017-Mar-24 12:34N 17°24' W 061°55'6 5.5
2017-Mar-24 11:33N 17°18' W 061°57'4 3.9
2017-Mar-24 10:33N 17°15' W 061°57'3 3.1
2017-Mar-24 09:33N 17°12' W 061°58'3 2.6
2017-Mar-24 08:33N 17°09' W 061°58'3 2.7
2017-Mar-24 07:33N 17°06' W 061°58'3 3.4
2017-Mar-24 06:33N 17°03' W 061°58'4 4.1
2017-Mar-24 05:33N 16°60' W 061°56'4 3.8
2017-Mar-24 04:34N 16°59' W 061°52'4 4.4
2017-Mar-24 03:33N 16°60' W 061°47'1 0.8
2017-Mar-24 02:30N 17°01' W 061°47'0 0.0
2017-Mar-24 01:30N 17°01' W 061°47'0 0.0
2017-Mar-24 00:30N 17°01' W 061°47'0 0.0
2017-Mar-23 23:30N 17°01' W 061°47'0 0.0
2017-Mar-23 22:30N 17°01' W 061°47'0 0.0
2017-Mar-23 21:30N 17°01' W 061°47'0 0.0
2017-Mar-23 20:30N 17°01' W 061°47'0 0.0
2017-Mar-23 19:30N 17°01' W 061°47'0 0.0
2017-Mar-23 18:31N 17°01' W 061°47'0 0.0
2017-Mar-23 17:31N 17°01' W 061°47'0 0.0
2017-Mar-23 16:31N 17°01' W 061°47'0 0.0
2017-Mar-23 15:31N 17°01' W 061°47'0 0.0
2017-Mar-23 14:31N 17°01' W 061°47'0 0.0
2017-Mar-23 13:31N 17°01' W 061°47'0 0.1
2017-Mar-23 12:34N 17°01' W 061°47'7 7.4
2017-Mar-23 11:33N 16°53' W 061°48'8 8.2
2017-Mar-23 10:33N 16°45' W 061°48'9 8.8
2017-Mar-23 09:33N 16°36' W 061°49'9 8.8
2017-Mar-23 08:33N 16°28' W 061°50'5 4.5
2017-Mar-23 07:34N 16°23' W 061°50'5 5.3
2017-Mar-23 06:34N 16°18' W 061°50'10 8.9
2017-Mar-23 05:28N 16°08' W 061°49'7 7.7
2017-Mar-23 04:34N 16°01' W 061°48'10 4.8
2017-Mar-23 02:34N 15°53' W 061°43'6 5.4
2017-Mar-23 01:30N 15°48' W 061°40'  
2017-Mar-17 10:12N 16°02' W 061°47'13 4.4
2017-Mar-17 07:18N 16°14' W 061°52'2 0.3
2017-Mar-17 01:33N 16°15' W 061°50'4 3.8
2017-Mar-17 00:32N 16°18' W 061°53'8 7.1
2017-Mar-16 23:27N 16°20' W 062°00'7 6.7
2017-Mar-16 22:28N 16°23' W 062°07'6 6.7
2017-Mar-16 21:33N 16°26' W 062°12'7 6.4
2017-Mar-16 20:28N 16°30' W 062°18'6 6.2
2017-Mar-16 19:33N 16°32' W 062°24'7 6.4
2017-Mar-16 18:31N 16°35' W 062°30'  
Track history (hours):
 
Tides and Currents Weather Stations Pressure Air Temp Water Temp Dewpoint Dewpoint Depression Visibility Wind Speed Wind Dir Waves Ship Positions

Star Flyer

Last reported at 2017-Mar-25 02:32 UTC. Time now 2017-Mar-26 15:03 UTC.
Position N 17°42' W 062°19'.

Length 112 m; draft 5.9 m.

Type: Ship. MMSI: 248785000.

Date/timePositionNaut miles runAvg speedWind from/ knotsBaromVisibWave heightAir tempDewpointWater temp
2017-Mar-25 02:32N 17°42' W 062°19'6 5.8
2017-Mar-25 01:34N 17°40' W 062°13'6 6.0
2017-Mar-25 00:33N 17°38' W 062°07'5 5.5
2017-Mar-24 23:34N 17°36' W 062°02'5 4.8
2017-Mar-24 22:34N 17°35' W 061°57'5 4.5
2017-Mar-24 21:33N 17°34' W 061°52'3 2.7
2017-Mar-24 20:30N 17°35' W 061°50'0 0.0
2017-Mar-24 19:30N 17°35' W 061°50'0 0.0
2017-Mar-24 18:30N 17°35' W 061°50'0 0.0
2017-Mar-24 17:30N 17°35' W 061°50'0 0.0
2017-Mar-24 16:30N 17°35' W 061°50'0 0.0
2017-Mar-24 15:31N 17°35' W 061°50'0 0.4
2017-Mar-24 14:26N 17°35' W 061°50'3 3.0
2017-Mar-24 13:33N 17°32' W 061°51'10 9.5
2017-Mar-24 12:34N 17°24' W 061°55'6 5.5
2017-Mar-24 11:33N 17°18' W 061°57'4 3.9
2017-Mar-24 10:33N 17°15' W 061°57'3 3.1
2017-Mar-24 09:33N 17°12' W 061°58'3 2.6
2017-Mar-24 08:33N 17°09' W 061°58'3 2.7
2017-Mar-24 07:33N 17°06' W 061°58'3 3.4
2017-Mar-24 06:33N 17°03' W 061°58'4 4.1
2017-Mar-24 05:33N 16°60' W 061°56'4 3.8
2017-Mar-24 04:34N 16°59' W 061°52'4 4.4
2017-Mar-24 03:33N 16°60' W 061°47'1 0.8
2017-Mar-24 02:30N 17°01' W 061°47'0 0.0
2017-Mar-24 01:30N 17°01' W 061°47'0 0.0
2017-Mar-24 00:30N 17°01' W 061°47'0 0.0
2017-Mar-23 23:30N 17°01' W 061°47'0 0.0
2017-Mar-23 22:30N 17°01' W 061°47'0 0.0
2017-Mar-23 21:30N 17°01' W 061°47'0 0.0
2017-Mar-23 20:30N 17°01' W 061°47'0 0.0
2017-Mar-23 19:30N 17°01' W 061°47'0 0.0
2017-Mar-23 18:31N 17°01' W 061°47'0 0.0
2017-Mar-23 17:31N 17°01' W 061°47'0 0.0
2017-Mar-23 16:31N 17°01' W 061°47'0 0.0
2017-Mar-23 15:31N 17°01' W 061°47'0 0.0
2017-Mar-23 14:31N 17°01' W 061°47'0 0.0
2017-Mar-23 13:31N 17°01' W 061°47'0 0.1
2017-Mar-23 12:34N 17°01' W 061°47'7 7.4
2017-Mar-23 11:33N 16°53' W 061°48'8 8.2
2017-Mar-23 10:33N 16°45' W 061°48'9 8.8
2017-Mar-23 09:33N 16°36' W 061°49'9 8.8
2017-Mar-23 08:33N 16°28' W 061°50'5 4.5
2017-Mar-23 07:34N 16°23' W 061°50'5 5.3
2017-Mar-23 06:34N 16°18' W 061°50'10 8.9
2017-Mar-23 05:28N 16°08' W 061°49'7 7.7
2017-Mar-23 04:34N 16°01' W 061°48'10 4.8
2017-Mar-23 02:34N 15°53' W 061°43'6 5.4
2017-Mar-23 01:30N 15°48' W 061°40'  
2017-Mar-17 10:12N 16°02' W 061°47'13 4.4
2017-Mar-17 07:18N 16°14' W 061°52'2 0.3
2017-Mar-17 01:33N 16°15' W 061°50'4 3.8
2017-Mar-17 00:32N 16°18' W 061°53'8 7.1
2017-Mar-16 23:27N 16°20' W 062°00'7 6.7
2017-Mar-16 22:28N 16°23' W 062°07'6 6.7
2017-Mar-16 21:33N 16°26' W 062°12'7 6.4
2017-Mar-16 20:28N 16°30' W 062°18'6 6.2
2017-Mar-16 19:33N 16°32' W 062°24'7 6.4
2017-Mar-16 18:31N 16°35' W 062°30'  

Dump ship's entire track history